Time;durP1;ratioP1;P1;durP2;ratioP2;P2;SDS_P1;SDS_P2;PMS_P1;PMS_P2;Temp;Humidity;BMP_temperature;BMP_pressure;BME280_temperature;BME280_humidity;BME280_pressure;Samples;Min_cycle;Max_cycle;Signal;HPM_P1;HPM_P2
2021/05/19 00:02:05;;;;;;;5.47;3.00;;;;;;;;;;5083418;28;20872;-69
2021/05/19 00:04:31;;;;;;;7.93;3.00;;;;;;;;;;5077616;28;21037;-68
2021/05/19 00:06:57;;;;;;;5.20;2.60;;;;;;;;;;5078510;28;20799;-68
2021/05/19 00:09:23;;;;;;;5.05;2.80;;;;;;;;;;5074046;28;20466;-69
2021/05/19 00:11:49;;;;;;;5.47;2.70;;;;;;;;;;5078546;28;20697;-69
2021/05/19 00:14:16;;;;;;;5.95;3.15;;;;;;;;;;5073185;28;20421;-68
2021/05/19 00:16:43;;;;;;;7.80;3.22;;;;;;;;;;5082180;28;20745;-69
2021/05/19 00:19:09;;;;;;;5.30;2.70;;;;;;;;;;5081013;28;20828;-68
2021/05/19 00:21:36;;;;;;;5.27;3.00;;;;;;;;;;5079694;28;20395;-68
2021/05/19 00:24:03;;;;;;;9.07;3.95;;;;;;;;;;5075551;28;20726;-68
2021/05/19 00:26:29;;;;;;;6.82;3.70;;;;;;;;;;5079550;28;20406;-68
2021/05/19 00:28:56;;;;;;;6.90;3.67;;;;;;;;;;5080358;28;20395;-69
2021/05/19 00:31:22;;;;;;;7.28;3.97;;;;;;;;;;5077761;28;20499;-68
2021/05/19 00:33:48;;;;;;;6.82;3.90;;;;;;;;;;5079957;28;20871;-68
2021/05/19 00:36:15;;;;;;;7.30;3.90;;;;;;;;;;5078372;28;20485;-68
2021/05/19 00:38:41;;;;;;;7.60;4.00;;;;;;;;;;5082024;28;20390;-69
2021/05/19 00:41:08;;;;;;;7.35;4.22;;;;;;;;;;5074970;28;21055;-68
2021/05/19 00:43:34;;;;;;;7.28;4.10;;;;;;;;;;5084889;28;20401;-68
2021/05/19 00:46:01;;;;;;;6.55;4.03;;;;;;;;;;5072957;28;20830;-68
2021/05/19 00:48:27;;;;;;;7.88;4.78;;;;;;;;;;5074911;28;20471;-69
2021/05/19 00:50:53;;;;;;;8.38;4.50;;;;;;;;;;5077406;28;22118;-68
2021/05/19 00:53:19;;;;;;;7.47;4.47;;;;;;;;;;5075164;28;20413;-69
2021/05/19 00:55:45;;;;;;;9.32;4.28;;;;;;;;;;5083245;28;20405;-68
2021/05/19 00:58:12;;;;;;;6.72;3.83;;;;;;;;;;5070582;28;20396;-68
2021/05/19 01:00:38;;;;;;;7.22;4.53;;;;;;;;;;5079651;28;20419;-68
2021/05/19 01:03:04;;;;;;;6.03;4.13;;;;;;;;;;5077547;28;20408;-69
2021/05/19 01:05:42;;;;;;;8.23;4.47;;;;;;;;;;5072833;28;20396;-68
2021/05/19 01:10:53;;;;;;;7.63;4.78;;;;;;;;;;5081862;28;20457;-68
2021/05/19 01:13:19;;;;;;;12.35;5.55;;;;;;;;;;5073299;28;20413;-69
2021/05/19 01:15:46;;;;;;;8.52;5.05;;;;;;;;;;5082867;28;20402;-68
2021/05/19 01:18:14;;;;;;;7.82;5.68;;;;;;;;;;5083287;28;20879;-68
2021/05/19 01:20:40;;;;;;;8.10;5.32;;;;;;;;;;5079894;28;20437;-69
2021/05/19 01:23:07;;;;;;;9.60;5.35;;;;;;;;;;5080424;28;21066;-68
2021/05/19 01:25:36;;;;;;;13.45;5.50;;;;;;;;;;5075018;28;20834;-68
2021/05/19 01:28:04;;;;;;;7.72;5.80;;;;;;;;;;5085784;28;20405;-68
2021/05/19 01:30:30;;;;;;;9.50;6.03;;;;;;;;;;5084030;28;20396;-68
2021/05/19 01:32:56;;;;;;;10.15;6.63;;;;;;;;;;5081700;28;20408;-68
2021/05/19 01:35:23;;;;;;;9.35;5.68;;;;;;;;;;5081363;28;20402;-68
2021/05/19 01:37:49;;;;;;;8.68;5.95;;;;;;;;;;5077893;28;20481;-68
2021/05/19 01:40:16;;;;;;;8.88;6.00;;;;;;;;;;5076316;28;20414;-68
2021/05/19 01:42:45;;;;;;;9.63;6.70;;;;;;;;;;5075806;28;20582;-69
2021/05/19 01:45:11;;;;;;;8.63;5.70;;;;;;;;;;5084028;28;20410;-68
2021/05/19 01:47:41;;;;;;;10.35;6.50;;;;;;;;;;5079170;28;20414;-68
2021/05/19 01:50:09;;;;;;;10.73;6.83;;;;;;;;;;5081284;28;20410;-68
2021/05/19 01:52:36;;;;;;;9.50;6.13;;;;;;;;;;5082011;28;20413;-68
2021/05/19 01:55:03;;;;;;;8.57;6.10;;;;;;;;;;5077186;28;20401;-69
2021/05/19 01:57:29;;;;;;;9.40;6.82;;;;;;;;;;5081400;28;20421;-69
2021/05/19 01:59:55;;;;;;;11.15;7.03;;;;;;;;;;5075751;28;20422;-68
2021/05/19 02:02:22;;;;;;;11.13;6.93;;;;;;;;;;5079252;28;20488;-69
2021/05/19 02:04:48;;;;;;;10.00;6.97;;;;;;;;;;5084552;28;20590;-68
2021/05/19 02:07:14;;;;;;;9.90;6.90;;;;;;;;;;5079763;28;20494;-68
2021/05/19 02:09:41;;;;;;;10.93;7.30;;;;;;;;;;5084574;28;20468;-68
2021/05/19 02:12:07;;;;;;;10.70;7.88;;;;;;;;;;5084671;28;20426;-68
2021/05/19 02:14:33;;;;;;;11.10;7.63;;;;;;;;;;5080161;28;20487;-68
2021/05/19 02:16:59;;;;;;;11.57;7.97;;;;;;;;;;5070669;28;20912;-68
2021/05/19 02:19:25;;;;;;;12.07;8.77;;;;;;;;;;5074965;28;20429;-69
2021/05/19 02:21:51;;;;;;;11.82;7.85;;;;;;;;;;5080582;28;20446;-69
2021/05/19 02:24:18;;;;;;;12.20;8.70;;;;;;;;;;5074057;28;20478;-68
2021/05/19 02:26:44;;;;;;;13.00;9.00;;;;;;;;;;5078463;28;20391;-69
2021/05/19 02:29:10;;;;;;;14.27;8.80;;;;;;;;;;5070269;28;20461;-68
2021/05/19 02:31:37;;;;;;;14.77;9.20;;;;;;;;;;5080682;28;20404;-68
2021/05/19 02:34:03;;;;;;;12.55;8.75;;;;;;;;;;5075989;28;20470;-69
2021/05/19 02:36:29;;;;;;;14.30;8.80;;;;;;;;;;5077034;28;20406;-68
2021/05/19 02:38:55;;;;;;;12.98;8.73;;;;;;;;;;5082436;28;20401;-68
2021/05/19 02:41:21;;;;;;;12.52;8.52;;;;;;;;;;5078894;28;20978;-68
2021/05/19 02:43:48;;;;;;;12.00;8.65;;;;;;;;;;5072238;28;20501;-69
2021/05/19 02:46:14;;;;;;;14.80;9.20;;;;;;;;;;5077048;28;20476;-68
2021/05/19 02:48:41;;;;;;;13.50;9.57;;;;;;;;;;5075580;28;20418;-68
2021/05/19 02:51:07;;;;;;;12.48;9.35;;;;;;;;;;5067697;28;20727;-69
2021/05/19 02:53:33;;;;;;;14.27;10.45;;;;;;;;;;5068634;28;20403;-68
2021/05/19 02:55:59;;;;;;;13.48;10.00;;;;;;;;;;5071248;28;20441;-69
2021/05/19 02:58:25;;;;;;;15.70;10.33;;;;;;;;;;5075072;28;20873;-68
2021/05/19 03:00:52;;;;;;;17.17;11.43;;;;;;;;;;5069719;28;20430;-68
2021/05/19 03:03:20;;;;;;;15.90;10.63;;;;;;;;;;5068472;28;20415;-69
2021/05/19 03:05:47;;;;;;;16.02;10.90;;;;;;;;;;5069057;28;20387;-69
2021/05/19 03:08:13;;;;;;;14.90;10.82;;;;;;;;;;5075822;28;20403;-70
2021/05/19 03:10:39;;;;;;;15.27;11.52;;;;;;;;;;5080257;28;21027;-68
2021/05/19 03:13:05;;;;;;;18.23;12.20;;;;;;;;;;5069602;28;20783;-68
2021/05/19 03:15:31;;;;;;;17.30;11.90;;;;;;;;;;5083548;28;20391;-68
2021/05/19 03:17:59;;;;;;;19.65;13.23;;;;;;;;;;5085768;28;20401;-68
2021/05/19 03:20:25;;;;;;;17.87;13.27;;;;;;;;;;5089508;28;20480;-68
2021/05/19 03:22:51;;;;;;;19.35;13.10;;;;;;;;;;5074278;28;20425;-68
2021/05/19 03:25:17;;;;;;;19.17;13.40;;;;;;;;;;5080590;28;20464;-68
2021/05/19 03:27:43;;;;;;;18.73;12.90;;;;;;;;;;5074676;28;20392;-68
2021/05/19 03:30:11;;;;;;;19.08;13.55;;;;;;;;;;5085567;28;20449;-68
2021/05/19 03:32:37;;;;;;;17.25;12.75;;;;;;;;;;5080170;28;20404;-69
2021/05/19 03:35:04;;;;;;;18.00;13.97;;;;;;;;;;5081539;28;20406;-68
2021/05/19 03:37:30;;;;;;;18.90;14.00;;;;;;;;;;5084173;28;20396;-68
2021/05/19 03:39:56;;;;;;;19.02;13.95;;;;;;;;;;5076494;28;20418;-68
2021/05/19 03:42:22;;;;;;;23.67;14.55;;;;;;;;;;5076635;28;20457;-68
2021/05/19 03:44:48;;;;;;;20.63;14.73;;;;;;;;;;5076819;28;20412;-68
2021/05/19 03:47:14;;;;;;;16.55;13.40;;;;;;;;;;5081459;28;20407;-68
2021/05/19 03:49:40;;;;;;;20.02;14.80;;;;;;;;;;5082745;28;20395;-68
2021/05/19 03:52:07;;;;;;;18.90;14.82;;;;;;;;;;5081960;28;20397;-68
2021/05/19 03:54:34;;;;;;;19.90;15.07;;;;;;;;;;5076629;28;20865;-68
2021/05/19 03:57:04;;;;;;;21.02;15.27;;;;;;;;;;5079394;28;20398;-70
2021/05/19 03:59:31;;;;;;;19.23;14.82;;;;;;;;;;5080479;28;20454;-69
2021/05/19 04:01:57;;;;;;;20.42;15.55;;;;;;;;;;5078969;28;20895;-68
2021/05/19 04:04:23;;;;;;;20.48;15.23;;;;;;;;;;5074637;28;20391;-69
2021/05/19 04:06:49;;;;;;;24.17;16.45;;;;;;;;;;5079058;28;20396;-68
2021/05/19 04:09:15;;;;;;;20.60;15.23;;;;;;;;;;5083926;28;20724;-68
2021/05/19 04:11:41;;;;;;;19.30;15.43;;;;;;;;;;5084420;28;20395;-68
2021/05/19 04:14:07;;;;;;;22.67;16.05;;;;;;;;;;5077779;28;20406;-68
2021/05/19 04:16:33;;;;;;;21.15;16.50;;;;;;;;;;5083778;28;20446;-68
2021/05/19 04:19:00;;;;;;;21.42;17.50;;;;;;;;;;5078446;28;20376;-68
2021/05/19 04:21:26;;;;;;;20.77;16.75;;;;;;;;;;5078200;28;20798;-68
2021/05/19 04:23:52;;;;;;;19.92;16.40;;;;;;;;;;5080407;28;20385;-68
2021/05/19 04:26:18;;;;;;;22.05;17.25;;;;;;;;;;5082396;28;20527;-68
2021/05/19 04:28:44;;;;;;;28.48;17.92;;;;;;;;;;5083541;28;20413;-69
2021/05/19 04:31:11;;;;;;;21.83;17.65;;;;;;;;;;5083132;28;20388;-69
2021/05/19 04:33:36;;;;;;;21.55;17.48;;;;;;;;;;5084722;28;20422;-68
2021/05/19 04:36:02;;;;;;;22.02;17.15;;;;;;;;;;5081771;28;20500;-68
2021/05/19 04:38:28;;;;;;;21.88;17.17;;;;;;;;;;5087495;28;20382;-68
2021/05/19 04:40:55;;;;;;;24.03;17.37;;;;;;;;;;5090029;28;20437;-68
2021/05/19 04:43:21;;;;;;;22.25;18.02;;;;;;;;;;5089710;28;20409;-69
2021/05/19 04:45:47;;;;;;;23.30;17.85;;;;;;;;;;5075320;28;20444;-68
2021/05/19 04:48:13;;;;;;;20.50;17.15;;;;;;;;;;5078355;28;20839;-68
2021/05/19 04:50:40;;;;;;;21.48;17.70;;;;;;;;;;5079265;28;20405;-68
2021/05/19 04:53:06;;;;;;;20.30;17.30;;;;;;;;;;5076209;28;20411;-68
2021/05/19 04:55:32;;;;;;;21.33;17.83;;;;;;;;;;5073692;28;20402;-68
2021/05/19 04:57:58;;;;;;;25.52;17.52;;;;;;;;;;5078992;28;20407;-69
2021/05/19 05:00:24;;;;;;;20.60;16.52;;;;;;;;;;5069859;28;20532;-69
2021/05/19 05:02:50;;;;;;;21.77;18.05;;;;;;;;;;5074997;28;20451;-68
2021/05/19 05:05:16;;;;;;;23.53;18.03;;;;;;;;;;5076795;28;20440;-68
2021/05/19 05:07:42;;;;;;;25.27;18.20;;;;;;;;;;5077516;28;20873;-69
2021/05/19 05:10:09;;;;;;;22.33;18.08;;;;;;;;;;5084888;28;20478;-68
2021/05/19 05:12:36;;;;;;;24.20;19.03;;;;;;;;;;5077338;28;20398;-68
2021/05/19 05:15:03;;;;;;;23.83;18.50;;;;;;;;;;5079063;28;20436;-68
2021/05/19 05:17:29;;;;;;;22.02;18.08;;;;;;;;;;5078799;28;20463;-68
2021/05/19 05:19:55;;;;;;;25.85;17.98;;;;;;;;;;5083791;28;20902;-68
2021/05/19 05:22:21;;;;;;;20.75;17.23;;;;;;;;;;5070282;28;21147;-68
2021/05/19 05:24:47;;;;;;;23.63;17.70;;;;;;;;;;5072975;28;20466;-69
2021/05/19 05:27:13;;;;;;;21.05;18.55;;;;;;;;;;5080021;28;20446;-68
2021/05/19 05:29:40;;;;;;;22.33;17.83;;;;;;;;;;5081274;28;20423;-68
2021/05/19 05:32:06;;;;;;;23.00;18.05;;;;;;;;;;5080850;28;20760;-68
2021/05/19 05:34:32;;;;;;;23.67;18.13;;;;;;;;;;5083200;28;20390;-69
2021/05/19 05:36:58;;;;;;;20.02;17.20;;;;;;;;;;5077956;28;20405;-68
2021/05/19 05:39:24;;;;;;;24.30;17.73;;;;;;;;;;5073164;28;20495;-68
2021/05/19 05:41:50;;;;;;;23.45;17.75;;;;;;;;;;5083596;28;20472;-68
2021/05/19 05:44:16;;;;;;;24.00;18.03;;;;;;;;;;5077710;28;20488;-68
2021/05/19 05:46:42;;;;;;;21.10;17.48;;;;;;;;;;5077382;28;20394;-68
2021/05/19 05:49:08;;;;;;;22.48;17.50;;;;;;;;;;5075077;28;20404;-68
2021/05/19 05:51:34;;;;;;;21.52;16.70;;;;;;;;;;5071478;28;20489;-68
2021/05/19 05:54:00;;;;;;;23.90;17.83;;;;;;;;;;5080660;28;20405;-69
2021/05/19 05:56:27;;;;;;;21.05;17.58;;;;;;;;;;5084192;28;20394;-69
2021/05/19 05:58:53;;;;;;;21.30;17.17;;;;;;;;;;5075650;28;20735;-68
2021/05/19 06:01:19;;;;;;;20.92;17.13;;;;;;;;;;5073631;28;20419;-69
2021/05/19 06:03:45;;;;;;;21.00;16.92;;;;;;;;;;5081264;28;20472;-69
2021/05/19 06:06:11;;;;;;;19.02;16.45;;;;;;;;;;5078253;28;20930;-68
2021/05/19 06:08:37;;;;;;;19.17;16.52;;;;;;;;;;5072592;28;20446;-68
2021/05/19 06:11:05;;;;;;;20.77;16.92;;;;;;;;;;5076346;28;20401;-69
2021/05/19 06:13:31;;;;;;;22.13;16.98;;;;;;;;;;5080022;28;20413;-68
2021/05/19 06:15:58;;;;;;;23.08;18.30;;;;;;;;;;5075462;28;20402;-68
2021/05/19 06:18:24;;;;;;;22.15;17.70;;;;;;;;;;5081064;28;20942;-69
2021/05/19 06:20:50;;;;;;;22.15;17.33;;;;;;;;;;5079598;28;20425;-70
2021/05/19 06:23:16;;;;;;;19.25;16.55;;;;;;;;;;5075326;28;20709;-69
2021/05/19 06:25:42;;;;;;;22.40;17.40;;;;;;;;;;5081917;28;20469;-70
2021/05/19 06:28:08;;;;;;;21.10;16.40;;;;;;;;;;5071729;28;20950;-70
2021/05/19 06:30:34;;;;;;;25.23;16.52;;;;;;;;;;5079016;28;20457;-69
2021/05/19 06:33:01;;;;;;;22.13;17.50;;;;;;;;;;5080545;28;20393;-68
2021/05/19 06:35:27;;;;;;;20.58;16.52;;;;;;;;;;5090497;28;20362;-68
2021/05/19 06:37:54;;;;;;;20.25;16.85;;;;;;;;;;5083435;28;20958;-68
2021/05/19 06:40:20;;;;;;;26.48;17.58;;;;;;;;;;5072171;28;20418;-68
2021/05/19 06:42:46;;;;;;;19.23;16.08;;;;;;;;;;5078933;28;20399;-68
2021/05/19 06:45:12;;;;;;;22.10;16.73;;;;;;;;;;5082602;28;21054;-69
2021/05/19 06:47:38;;;;;;;21.17;15.90;;;;;;;;;;5081529;28;20410;-68
2021/05/19 06:50:04;;;;;;;21.60;15.75;;;;;;;;;;5084142;28;20442;-69
2021/05/19 06:52:30;;;;;;;21.83;16.60;;;;;;;;;;5083378;28;20490;-69
2021/05/19 06:54:56;;;;;;;21.58;15.27;;;;;;;;;;5075856;28;20484;-70
2021/05/19 06:57:22;;;;;;;21.33;16.63;;;;;;;;;;5082985;28;20482;-69
2021/05/19 06:59:51;;;;;;;23.23;16.23;;;;;;;;;;5084901;28;20436;-68
2021/05/19 07:02:17;;;;;;;24.50;17.30;;;;;;;;;;5082885;28;20431;-68
2021/05/19 07:04:43;;;;;;;19.88;14.98;;;;;;;;;;5078517;28;20763;-68
2021/05/19 07:07:09;;;;;;;19.83;15.50;;;;;;;;;;5084986;28;20402;-69
2021/05/19 07:09:36;;;;;;;21.00;15.23;;;;;;;;;;5081515;28;20523;-69
2021/05/19 07:12:02;;;;;;;21.25;15.18;;;;;;;;;;5077037;28;20882;-69
2021/05/19 07:14:28;;;;;;;20.95;14.52;;;;;;;;;;5073260;28;20458;-69
2021/05/19 07:16:54;;;;;;;19.73;15.68;;;;;;;;;;5072877;28;20479;-68
2021/05/19 07:19:21;;;;;;;21.15;15.40;;;;;;;;;;5075482;28;20415;-69
2021/05/19 07:21:47;;;;;;;23.27;15.50;;;;;;;;;;5080086;28;20441;-68
2021/05/19 07:24:14;;;;;;;21.05;15.27;;;;;;;;;;5084693;28;20412;-68
2021/05/19 07:26:41;;;;;;;23.50;15.27;;;;;;;;;;5093499;28;20366;-68
2021/05/19 07:29:07;;;;;;;22.17;14.90;;;;;;;;;;5093239;28;20719;-69
2021/05/19 07:31:34;;;;;;;23.40;14.65;;;;;;;;;;5093633;28;20377;-68
2021/05/19 07:34:00;;;;;;;21.10;15.13;;;;;;;;;;5091578;28;20358;-68
2021/05/19 07:36:27;;;;;;;23.52;16.40;;;;;;;;;;5089692;28;20374;-69
2021/05/19 07:38:53;;;;;;;21.25;14.38;;;;;;;;;;5088970;28;20396;-69
2021/05/19 07:41:19;;;;;;;23.42;14.38;;;;;;;;;;5087812;28;20722;-68
2021/05/19 07:43:45;;;;;;;20.70;14.32;;;;;;;;;;5090422;28;20425;-68
2021/05/19 07:46:11;;;;;;;20.85;14.50;;;;;;;;;;5093469;28;20412;-68
2021/05/19 07:48:37;;;;;;;20.63;13.43;;;;;;;;;;5080115;28;20410;-68
2021/05/19 07:51:03;;;;;;;20.67;14.53;;;;;;;;;;5078346;28;20401;-69
2021/05/19 07:53:29;;;;;;;21.60;14.00;;;;;;;;;;5091510;28;20425;-68
2021/05/19 07:58:43;;;;;;;20.10;14.18;;;;;;;;;;5077852;28;20449;-69
2021/05/19 08:01:33;;;;;;;24.60;13.80;;;;;;;;;;5091045;28;20728;-69
2021/05/19 08:03:59;;;;;;;21.40;13.60;;;;;;;;;;5091543;28;20451;-68
2021/05/19 08:06:25;;;;;;;24.70;14.95;;;;;;;;;;5090230;28;20413;-69
2021/05/19 08:08:51;;;;;;;22.05;14.00;;;;;;;;;;5077918;28;20457;-68
2021/05/19 08:11:17;;;;;;;19.48;13.40;;;;;;;;;;5080524;28;20811;-68
2021/05/19 08:13:46;;;;;;;20.70;13.75;;;;;;;;;;5086457;28;20407;-68
2021/05/19 08:16:12;;;;;;;19.83;13.05;;;;;;;;;;5078443;28;20914;-69
2021/05/19 08:18:38;;;;;;;21.10;13.23;;;;;;;;;;5079790;28;20427;-68
2021/05/19 08:21:04;;;;;;;21.20;12.30;;;;;;;;;;5078534;28;20965;-68
2021/05/19 08:23:30;;;;;;;19.25;12.10;;;;;;;;;;5082073;28;20390;-69
2021/05/19 08:25:57;;;;;;;22.48;12.35;;;;;;;;;;5077551;28;20465;-68
2021/05/19 08:28:23;;;;;;;16.67;11.35;;;;;;;;;;5077762;28;20403;-68
2021/05/19 08:30:49;;;;;;;20.47;12.10;;;;;;;;;;5084881;28;20397;-69
2021/05/19 08:33:15;;;;;;;17.95;11.88;;;;;;;;;;5075884;28;22157;-69
2021/05/19 08:35:41;;;;;;;17.92;11.18;;;;;;;;;;5074574;28;20432;-69
2021/05/19 08:38:07;;;;;;;18.43;11.03;;;;;;;;;;5078307;28;20423;-68
2021/05/19 08:40:34;;;;;;;16.20;10.77;;;;;;;;;;5076704;28;20422;-69
2021/05/19 08:43:00;;;;;;;15.32;10.40;;;;;;;;;;5081183;28;20382;-68
2021/05/19 08:45:26;;;;;;;15.35;10.63;;;;;;;;;;5078205;28;20615;-69
2021/05/19 08:47:59;;;;;;;19.55;12.77;;;;;;;;;;5079675;28;20402;-68
2021/05/19 08:50:27;;;;;;;18.77;11.85;;;;;;;;;;5080041;28;20402;-69
2021/05/19 08:52:54;;;;;;;20.13;12.40;;;;;;;;;;5083733;28;20946;-69
2021/05/19 08:55:20;;;;;;;16.85;12.07;;;;;;;;;;5085826;28;20389;-69
2021/05/19 08:57:46;;;;;;;17.00;11.88;;;;;;;;;;5081495;28;20855;-70
2021/05/19 09:00:13;;;;;;;18.40;11.45;;;;;;;;;;5081631;28;20459;-68
2021/05/19 09:02:39;;;;;;;17.02;11.65;;;;;;;;;;5070741;28;20395;-68
2021/05/19 09:05:06;;;;;;;18.17;12.23;;;;;;;;;;5087529;28;20410;-68
2021/05/19 09:07:33;;;;;;;18.35;12.10;;;;;;;;;;5084458;28;20868;-68
2021/05/19 09:10:14;;;;;;;17.42;12.18;;;;;;;;;;5082975;28;20716;-68
2021/05/19 09:12:41;;;;;;;18.23;12.02;;;;;;;;;;5070252;28;20784;-68
2021/05/19 09:15:08;;;;;;;20.17;12.45;;;;;;;;;;5076027;28;20440;-68
2021/05/19 09:17:35;;;;;;;16.70;12.45;;;;;;;;;;5088854;28;20386;-69
2021/05/19 09:20:01;;;;;;;17.75;11.80;;;;;;;;;;5086691;28;20456;-68
2021/05/19 09:22:32;;;;;;;18.85;13.05;;;;;;;;;;5084411;28;20378;-68
2021/05/19 09:24:58;;;;;;;20.27;12.55;;;;;;;;;;5079344;28;20393;-69
2021/05/19 09:27:24;;;;;;;21.60;13.38;;;;;;;;;;5088459;28;21196;-69
2021/05/19 09:29:51;;;;;;;19.55;12.48;;;;;;;;;;5077049;28;20720;-69
2021/05/19 09:32:19;;;;;;;18.10;11.95;;;;;;;;;;5085260;28;20390;-68
2021/05/19 09:34:46;;;;;;;18.00;11.57;;;;;;;;;;5088068;28;20396;-68
2021/05/19 09:37:12;;;;;;;19.25;12.35;;;;;;;;;;5079800;28;20486;-69
2021/05/19 09:39:47;;;;;;;19.73;13.27;;;;;;;;;;5082993;28;20497;-69
2021/05/19 09:42:13;;;;;;;20.98;13.13;;;;;;;;;;5077528;28;20531;-68
2021/05/19 09:44:39;;;;;;;21.48;12.15;;;;;;;;;;5090429;28;20405;-68
2021/05/19 09:47:05;;;;;;;17.33;12.73;;;;;;;;;;5084110;28;20611;-69
2021/05/19 09:49:31;;;;;;;21.10;13.13;;;;;;;;;;5076020;28;20407;-69
2021/05/19 09:51:58;;;;;;;32.75;13.52;;;;;;;;;;5089389;28;20471;-68
2021/05/19 09:54:24;;;;;;;22.48;13.05;;;;;;;;;;5083912;28;20833;-69
2021/05/19 09:56:54;;;;;;;21.20;14.45;;;;;;;;;;5089945;28;20435;-69
2021/05/19 09:59:20;;;;;;;19.27;14.15;;;;;;;;;;5078468;28;20417;-68
2021/05/19 10:01:46;;;;;;;20.05;14.18;;;;;;;;;;5079987;28;20402;-69
2021/05/19 10:04:12;;;;;;;24.00;14.70;;;;;;;;;;5097033;28;20753;-68
2021/05/19 10:06:41;;;;;;;23.13;15.38;;;;;;;;;;5076866;28;20418;-69
2021/05/19 10:09:07;;;;;;;22.48;15.70;;;;;;;;;;5080153;28;20455;-68
2021/05/19 10:11:33;;;;;;;21.85;14.85;;;;;;;;;;5088651;28;20408;-68
2021/05/19 10:14:02;;;;;;;21.77;14.20;;;;;;;;;;5083001;28;20396;-68
2021/05/19 10:16:28;;;;;;;18.75;13.05;;;;;;;;;;5079132;28;20423;-68
2021/05/19 10:18:55;;;;;;;18.13;11.60;;;;;;;;;;5082302;28;20966;-68
2021/05/19 10:21:23;;;;;;;16.00;9.45;;;;;;;;;;5076601;28;20428;-68
2021/05/19 10:27:03;;;;;;;14.55;8.80;;;;;;;;;;5076456;28;20413;-68
2021/05/19 10:29:51;;;;;;;13.00;8.27;;;;;;;;;;5084592;28;20388;-68
2021/05/19 10:32:23;;;;;;;11.73;7.17;;;;;;;;;;5087643;28;20409;-68
2021/05/19 10:34:56;;;;;;;9.60;5.53;;;;;;;;;;5086850;28;20390;-68
2021/05/19 10:37:28;;;;;;;12.18;4.97;;;;;;;;;;5079756;28;20543;-68
2021/05/19 10:40:13;;;;;;;8.48;4.72;;;;;;;;;;5082338;28;20409;-68
2021/05/19 10:42:55;;;;;;;7.97;3.70;;;;;;;;;;5072821;28;20406;-71
2021/05/19 10:45:22;;;;;;;10.47;3.57;;;;;;;;;;5079522;28;20409;-66
2021/05/19 10:47:48;;;;;;;9.18;3.40;;;;;;;;;;5071378;28;21266;-66
2021/05/19 10:50:40;;;;;;;10.17;2.90;;;;;;;;;;5083255;28;20473;-66
2021/05/19 10:58:39;;;;;;;54.22;9.05;;;;;;;;;;5079345;28;20402;-67
2021/05/19 11:01:07;;;;;;;34.13;6.00;;;;;;;;;;5080759;28;20476;-67
2021/05/19 11:03:33;;;;;;;17.95;3.47;;;;;;;;;;5093377;28;20375;-68
2021/05/19 11:06:00;;;;;;;15.13;2.78;;;;;;;;;;5085447;28;20733;-68
2021/05/19 11:08:30;;;;;;;8.25;2.33;;;;;;;;;;5069288;28;20917;-67
2021/05/19 11:11:15;;;;;;;5.82;1.50;;;;;;;;;;5074297;28;20399;-68
2021/05/19 11:13:58;;;;;;;6.03;1.40;;;;;;;;;;5089127;28;20385;-68
2021/05/19 11:16:29;;;;;;;5.78;1.58;;;;;;;;;;5089355;28;20477;-68
2021/05/19 11:19:03;;;;;;;6.05;1.50;;;;;;;;;;5088065;28;20413;-68
2021/05/19 11:21:29;;;;;;;3.80;1.55;;;;;;;;;;5083939;28;20479;-67
2021/05/19 11:24:15;;;;;;;5.23;1.43;;;;;;;;;;5089166;28;20450;-68
2021/05/19 11:26:46;;;;;;;4.53;1.50;;;;;;;;;;5075532;28;20390;-67
2021/05/19 11:29:14;;;;;;;7.00;1.67;;;;;;;;;;5080699;28;20414;-68
2021/05/19 11:31:44;;;;;;;6.68;1.60;;;;;;;;;;5088058;28;20382;-68
2021/05/19 11:34:11;;;;;;;4.82;1.58;;;;;;;;;;5086867;28;20428;-67
2021/05/19 11:36:54;;;;;;;3.45;1.70;;;;;;;;;;5077730;28;20390;-68
2021/05/19 11:39:23;;;;;;;3.58;1.50;;;;;;;;;;5087786;28;20465;-68
2021/05/19 11:41:50;;;;;;;3.83;1.63;;;;;;;;;;5081657;28;20409;-68
2021/05/19 11:44:33;;;;;;;3.05;1.40;;;;;;;;;;5072231;28;20723;-68
2021/05/19 11:47:01;;;;;;;3.10;1.38;;;;;;;;;;5077732;28;20890;-68
2021/05/19 11:49:27;;;;;;;2.97;1.42;;;;;;;;;;5077901;28;20450;-67
2021/05/19 11:51:53;;;;;;;2.80;1.45;;;;;;;;;;5088643;28;20405;-67
2021/05/19 11:54:21;;;;;;;2.90;1.30;;;;;;;;;;5089542;28;20681;-67
2021/05/19 11:56:52;;;;;;;2.30;1.40;;;;;;;;;;5076549;28;20836;-68
2021/05/19 11:59:24;;;;;;;2.72;1.42;;;;;;;;;;5075622;28;20472;-68
2021/05/19 12:01:56;;;;;;;2.88;1.38;;;;;;;;;;5092979;28;20842;-68
2021/05/19 12:04:22;;;;;;;4.57;1.80;;;;;;;;;;5091445;28;20409;-68
2021/05/19 12:06:49;;;;;;;4.85;1.88;;;;;;;;;;5090037;28;20434;-69
2021/05/19 12:09:17;;;;;;;3.60;1.40;;;;;;;;;;5088861;28;20485;-67
2021/05/19 12:11:43;;;;;;;3.90;1.30;;;;;;;;;;5085675;28;20504;-68
2021/05/19 12:14:12;;;;;;;3.08;1.23;;;;;;;;;;5084265;28;20760;-67
2021/05/19 12:16:45;;;;;;;3.78;1.40;;;;;;;;;;5092490;28;20374;-68
2021/05/19 12:19:13;;;;;;;3.77;1.60;;;;;;;;;;5083389;28;20883;-67
2021/05/19 12:21:44;;;;;;;2.43;1.23;;;;;;;;;;5091456;28;20460;-68
2021/05/19 12:24:10;;;;;;;3.15;1.23;;;;;;;;;;5085793;28;20386;-68
2021/05/19 12:26:37;;;;;;;3.00;1.50;;;;;;;;;;5083779;28;20458;-68
2021/05/19 12:29:22;;;;;;;3.83;1.25;;;;;;;;;;5082664;28;20954;-67
2021/05/19 12:31:48;;;;;;;3.53;1.40;;;;;;;;;;5090713;28;20394;-67
2021/05/19 12:34:15;;;;;;;2.90;1.40;;;;;;;;;;5091168;28;20405;-68
2021/05/19 12:36:43;;;;;;;3.70;1.33;;;;;;;;;;5073982;28;20445;-67
2021/05/19 12:39:09;;;;;;;3.63;1.20;;;;;;;;;;5082875;28;20402;-67
2021/05/19 12:41:51;;;;;;;3.25;1.42;;;;;;;;;;5082792;28;20422;-69
2021/05/19 12:44:18;;;;;;;2.90;1.02;;;;;;;;;;5078829;28;20414;-68
2021/05/19 12:46:58;;;;;;;2.95;1.30;;;;;;;;;;5075130;28;20430;-68
2021/05/19 12:49:25;;;;;;;2.17;1.27;;;;;;;;;;5081719;28;20420;-68
2021/05/19 12:51:52;;;;;;;3.03;1.40;;;;;;;;;;5084133;28;20425;-68
2021/05/19 12:54:20;;;;;;;2.65;1.30;;;;;;;;;;5074998;28;20386;-67
2021/05/19 12:56:46;;;;;;;2.15;1.20;;;;;;;;;;5085038;28;20394;-68
2021/05/19 12:59:13;;;;;;;1.83;1.10;;;;;;;;;;5081626;28;20401;-68
2021/05/19 13:01:48;;;;;;;2.33;1.13;;;;;;;;;;5079094;28;20499;-67
2021/05/19 13:04:16;;;;;;;2.80;1.45;;;;;;;;;;5072789;28;20395;-67
2021/05/19 13:06:42;;;;;;;2.35;1.10;;;;;;;;;;5084197;28;20412;-68
2021/05/19 13:09:09;;;;;;;2.27;1.20;;;;;;;;;;5085711;28;20456;-68
2021/05/19 13:12:07;;;;;;;2.53;1.10;;;;;;;;;;5079162;28;20394;-67
2021/05/19 13:14:45;;;;;;;2.90;1.35;;;;;;;;;;5076493;28;20461;-67
2021/05/19 13:17:31;;;;;;;1.95;1.10;;;;;;;;;;5085409;28;20416;-67
2021/05/19 13:20:04;;;;;;;2.20;1.20;;;;;;;;;;5083057;28;20501;-67
2021/05/19 13:22:30;;;;;;;2.47;1.30;;;;;;;;;;5078860;28;20402;-68
2021/05/19 13:24:56;;;;;;;3.00;1.37;;;;;;;;;;5080487;28;20865;-67
2021/05/19 13:27:26;;;;;;;3.15;1.38;;;;;;;;;;5079714;28;20439;-67
2021/05/19 13:29:54;;;;;;;2.93;1.60;;;;;;;;;;5083909;28;20496;-66
2021/05/19 13:32:35;;;;;;;3.13;1.52;;;;;;;;;;5086530;28;20402;-67
2021/05/19 13:37:49;;;;;;;2.28;1.40;;;;;;;;;;5076663;28;20415;-67
2021/05/19 13:40:16;;;;;;;3.65;1.70;;;;;;;;;;5085968;28;20414;-67
2021/05/19 13:42:42;;;;;;;3.10;1.58;;;;;;;;;;5081318;28;20399;-67
2021/05/19 13:45:09;;;;;;;3.60;1.60;;;;;;;;;;5087789;28;20463;-67
2021/05/19 13:47:35;;;;;;;2.92;1.30;;;;;;;;;;5089883;28;20398;-67
2021/05/19 13:50:01;;;;;;;2.23;1.43;;;;;;;;;;5085168;28;20439;-67
2021/05/19 13:52:27;;;;;;;2.42;1.13;;;;;;;;;;5079807;28;20392;-67
2021/05/19 13:54:53;;;;;;;2.47;1.20;;;;;;;;;;5078082;28;20436;-68
2021/05/19 13:57:20;;;;;;;2.35;1.25;;;;;;;;;;5079412;28;20418;-67
2021/05/19 13:59:46;;;;;;;1.73;1.15;;;;;;;;;;5077591;28;20786;-67
2021/05/19 14:02:12;;;;;;;4.40;1.03;;;;;;;;;;5090073;28;20451;-67
2021/05/19 14:04:38;;;;;;;2.03;0.93;;;;;;;;;;5096101;28;20404;-66
2021/05/19 14:07:04;;;;;;;3.35;1.02;;;;;;;;;;5087679;28;20397;-67
2021/05/19 14:09:30;;;;;;;5.20;1.03;;;;;;;;;;5089748;28;20397;-67
2021/05/19 14:12:20;;;;;;;2.42;0.85;;;;;;;;;;5073747;28;20498;-67
2021/05/19 14:27:52;;;;;;;2.70;1.15;;;;;;;;;;5087215;28;20401;-68
2021/05/19 14:30:18;;;;;;;3.40;1.10;;;;;;;;;;5078583;28;20746;-68
2021/05/19 14:32:45;;;;;;;2.08;1.00;;;;;;;;;;5069597;28;20881;-67
2021/05/19 14:39:24;;;;;;;1.75;0.90;;;;;;;;;;5068168;28;20493;-68
2021/05/19 14:54:28;;;;;;;2.77;0.80;;;;;;;;;;5072433;28;20439;-68
2021/05/19 14:59:56;;;;;;;2.28;0.88;;;;;;;;;;5050422;28;20889;-68
2021/05/19 15:02:22;;;;;;;2.05;0.88;;;;;;;;;;5072602;28;20493;-69
2021/05/19 15:04:49;;;;;;;1.75;0.88;;;;;;;;;;5087657;28;20445;-69
2021/05/19 15:07:15;;;;;;;2.83;0.98;;;;;;;;;;5077288;28;20375;-68
2021/05/19 15:09:41;;;;;;;1.17;0.80;;;;;;;;;;5086063;28;20394;-69
2021/05/19 15:12:07;;;;;;;1.95;0.80;;;;;;;;;;5075338;28;20411;-68
2021/05/19 15:14:33;;;;;;;2.03;0.80;;;;;;;;;;5078806;28;20394;-69
2021/05/19 15:16:59;;;;;;;2.38;0.85;;;;;;;;;;5093513;28;20457;-68
2021/05/19 15:19:25;;;;;;;2.63;0.73;;;;;;;;;;5088745;28;20401;-68
2021/05/19 15:21:51;;;;;;;4.07;0.82;;;;;;;;;;5080038;28;20822;-68